createdAt,value
2023-05-21T00:03:42.639Z,16.5
2023-05-21T00:32:43.650Z,16.2
2023-05-21T01:01:47.136Z,15.9
2023-05-21T01:30:43.296Z,15.5
2023-05-21T01:59:51.275Z,15.1
2023-05-21T02:29:04.493Z,14.8
2023-05-21T02:58:11.584Z,14.5
2023-05-21T03:27:11.958Z,14.1
2023-05-21T03:56:22.931Z,13.8
2023-05-21T04:25:31.598Z,13.6
2023-05-21T04:54:45.888Z,13.7
2023-05-21T05:23:57.443Z,13.9
2023-05-21T05:52:57.285Z,14.3
2023-05-21T06:22:16.030Z,14.9
2023-05-21T06:51:25.882Z,15.9
2023-05-21T07:20:39.254Z,17
2023-05-21T07:49:50.212Z,17.6
2023-05-21T08:19:11.925Z,18.2
2023-05-21T08:48:21.373Z,19.4
2023-05-21T09:17:36.657Z,20.7
2023-05-21T09:46:44.353Z,21.8
2023-05-21T10:15:51.276Z,22.8
2023-05-21T10:44:43.786Z,23.8
2023-05-21T11:13:58.018Z,24.7
2023-05-21T11:43:13.498Z,25.6
2023-05-21T12:12:54.526Z,29.9
2023-05-21T12:41:29.892Z,31
2023-05-21T13:10:49.917Z,29.1
2023-05-21T13:39:52.110Z,28.4
2023-05-21T14:09:01.711Z,33.7
2023-05-21T14:38:07.322Z,34.3
2023-05-21T15:07:34.072Z,33.1
2023-05-21T15:36:59.795Z,32.5
2023-05-21T16:06:09.419Z,28.8
2023-05-21T16:35:23.657Z,26.6
2023-05-21T17:04:33.189Z,24.3
2023-05-21T17:33:43.147Z,22.6
2023-05-21T18:02:57.698Z,21.6
2023-05-21T18:31:59.126Z,20.9
2023-05-21T19:01:15.871Z,20.2
2023-05-21T19:30:21.520Z,20
2023-05-21T19:59:31.680Z,19.5
2023-05-21T20:28:43.046Z,19.1
2023-05-21T20:57:56.194Z,18.1
2023-05-21T21:26:53.338Z,17.4
2023-05-21T21:56:08.066Z,17
2023-05-21T22:25:26.444Z,16.8
2023-05-21T22:54:41.053Z,16.6
2023-05-21T23:24:02.532Z,17
2023-05-21T23:53:23.581Z,17.1
